createdAt,value
2023-05-12T00:00:31.834Z,1381.00
2023-05-12T00:01:31.891Z,1369.00
2023-05-12T00:02:32.035Z,1363.00
2023-05-12T00:03:32.219Z,1362.00
2023-05-12T00:04:32.012Z,1372.00
2023-05-12T00:05:32.014Z,1363.00
2023-05-12T00:06:32.067Z,1354.00
2023-05-12T00:07:32.128Z,1360.00
2023-05-12T00:08:32.180Z,1340.00
2023-05-12T00:09:32.225Z,1350.00
2023-05-12T00:10:32.271Z,1354.00
2023-05-12T00:11:32.305Z,1354.00
2023-05-12T00:12:32.369Z,1341.00
2023-05-12T00:13:32.454Z,1345.00
2023-05-12T00:14:32.472Z,1344.00
2023-05-12T00:15:32.532Z,1325.00
2023-05-12T00:16:32.656Z,1322.00
2023-05-12T00:17:32.664Z,1313.00
2023-05-12T00:18:32.688Z,1311.00
2023-05-12T00:19:32.721Z,1309.00
2023-05-12T00:20:32.754Z,1298.00
2023-05-12T00:21:32.784Z,1291.00
2023-05-12T00:22:32.823Z,1292.00
2023-05-12T00:23:32.760Z,1295.00
2023-05-12T00:24:32.767Z,1306.00
2023-05-12T00:25:32.770Z,1314.00
2023-05-12T00:26:32.743Z,1328.00
2023-05-12T00:27:32.726Z,1320.00
2023-05-12T00:28:32.732Z,1326.00
2023-05-12T00:29:32.716Z,1337.00
2023-05-12T00:30:32.749Z,1339.00
2023-05-12T00:31:32.804Z,1336.00
2023-05-12T00:32:32.809Z,1326.00
2023-05-12T00:33:32.842Z,1335.00
2023-05-12T00:34:32.877Z,1329.00
2023-05-12T00:35:32.928Z,1331.00
2023-05-12T00:36:33.024Z,1338.00
2023-05-12T00:37:33.026Z,1326.00
2023-05-12T00:38:33.072Z,1325.00
2023-05-12T00:39:33.096Z,1331.00
2023-05-12T00:40:33.144Z,1337.00
2023-05-12T00:41:33.177Z,1337.00
2023-05-12T00:42:33.198Z,1316.00
2023-05-12T00:43:33.242Z,1316.00
2023-05-12T00:44:33.333Z,1322.00
2023-05-12T00:45:33.376Z,1333.00
2023-05-12T00:46:33.348Z,1333.00
2023-05-12T00:47:33.426Z,1326.00
2023-05-12T00:48:33.443Z,1332.00
2023-05-12T00:49:33.497Z,1313.00
2023-05-12T00:50:33.524Z,1342.00
2023-05-12T00:51:33.565Z,1323.00
2023-05-12T00:52:33.597Z,1332.00
2023-05-12T00:53:47.684Z,1316.00
2023-05-12T00:54:34.626Z,1317.00
2023-05-12T00:55:33.611Z,1319.00
2023-05-12T00:56:34.087Z,1319.00
2023-05-12T00:57:33.581Z,1337.00
2023-05-12T00:58:33.574Z,1345.00
2023-05-12T00:59:33.571Z,1334.00
2023-05-12T01:00:33.556Z,1326.00
2023-05-12T01:01:33.660Z,1334.00
2023-05-12T01:02:33.626Z,1328.00
2023-05-12T01:03:33.768Z,1348.00
2023-05-12T01:04:33.651Z,1340.00
2023-05-12T01:05:33.695Z,1322.00
2023-05-12T01:06:33.715Z,1322.00
2023-05-12T01:07:33.908Z,1333.00
2023-05-12T01:08:33.804Z,1330.00
2023-05-12T01:09:33.833Z,1327.00
2023-05-12T01:10:33.903Z,1343.00
2023-05-12T01:11:33.943Z,1335.00
2023-05-12T01:12:33.960Z,1325.00
2023-05-12T01:13:33.983Z,1334.00
2023-05-12T01:14:34.025Z,1322.00
2023-05-12T01:15:34.065Z,1333.00
2023-05-12T01:16:34.116Z,1336.00
2023-05-12T01:17:34.260Z,1325.00
2023-05-12T01:18:34.216Z,1317.00
2023-05-12T01:19:34.214Z,1312.00
2023-05-12T01:20:34.262Z,1323.00
2023-05-12T01:21:34.338Z,1323.00
2023-05-12T01:22:34.322Z,1333.00
2023-05-12T01:23:34.393Z,1308.00
2023-05-12T01:24:34.412Z,1339.00
2023-05-12T01:25:34.437Z,1337.00
2023-05-12T01:26:34.526Z,1332.00
2023-05-12T01:27:34.553Z,1316.00
2023-05-12T01:28:34.622Z,1327.00
2023-05-12T01:29:34.605Z,1329.00
2023-05-12T01:30:34.798Z,1328.00
2023-05-12T01:31:34.877Z,1325.00
2023-05-12T01:32:34.841Z,1326.00
2023-05-12T01:33:34.785Z,1316.00
2023-05-12T01:34:34.832Z,1320.00
2023-05-12T01:35:34.897Z,1318.00
2023-05-12T01:36:35.095Z,1325.00
2023-05-12T01:37:35.009Z,1332.00
2023-05-12T01:38:35.101Z,1329.00
2023-05-12T01:39:35.025Z,1322.00
2023-05-12T01:40:35.112Z,1332.00
2023-05-12T01:41:35.123Z,1317.00
2023-05-12T01:42:35.170Z,1331.00
2023-05-12T01:43:35.240Z,1324.00
2023-05-12T01:44:35.273Z,1316.00
2023-05-12T01:45:35.263Z,1317.00
2023-05-12T01:46:35.284Z,1320.00
2023-05-12T01:47:35.215Z,1319.00
2023-05-12T01:48:35.206Z,1323.00
2023-05-12T01:49:35.178Z,1316.00
2023-05-12T01:50:35.172Z,1341.00
2023-05-12T01:51:35.204Z,1327.00
2023-05-12T01:52:35.165Z,1326.00
2023-05-12T01:53:35.195Z,1324.00
2023-05-12T01:54:35.237Z,1324.00
2023-05-12T01:55:35.250Z,1306.00
2023-05-12T01:56:35.289Z,1322.00
2023-05-12T01:57:35.369Z,1297.00
2023-05-12T01:58:35.429Z,1314.00
2023-05-12T01:59:35.431Z,1311.00
2023-05-12T02:00:35.488Z,1322.00
2023-05-12T02:01:35.567Z,1320.00
2023-05-12T02:02:35.599Z,1325.00
2023-05-12T02:03:35.639Z,1319.00
2023-05-12T02:04:35.618Z,1329.00
2023-05-12T02:05:35.661Z,1302.00
2023-05-12T02:06:35.726Z,1316.00
2023-05-12T02:07:35.773Z,1318.00
2023-05-12T02:08:35.792Z,1300.00
2023-05-12T02:09:35.850Z,1324.00
2023-05-12T02:10:35.909Z,1313.00
2023-05-12T02:11:35.968Z,1313.00
2023-05-12T02:12:36.002Z,1296.00
2023-05-12T02:13:36.103Z,1304.00
2023-05-12T02:14:36.110Z,1312.00
2023-05-12T02:15:36.144Z,1327.00
2023-05-12T02:16:36.220Z,1308.00
2023-05-12T02:17:36.347Z,1303.00
2023-05-12T02:18:36.295Z,1311.00
2023-05-12T02:19:36.349Z,1302.00
2023-05-12T02:20:36.391Z,1310.00
2023-05-12T02:21:36.408Z,1308.00
2023-05-12T02:22:36.478Z,1292.00
2023-05-12T02:23:36.508Z,1297.00
2023-05-12T02:24:36.530Z,1308.00
2023-05-12T02:25:36.550Z,1296.00
2023-05-12T02:26:36.556Z,1311.00
2023-05-12T02:27:36.585Z,1302.00
2023-05-12T02:28:36.627Z,1300.00
2023-05-12T02:29:36.626Z,1311.00
2023-05-12T02:30:36.654Z,1305.00
2023-05-12T02:31:36.711Z,1317.00
2023-05-12T02:32:36.754Z,1291.00
2023-05-12T02:33:36.875Z,1307.00
2023-05-12T02:34:36.874Z,1297.00
2023-05-12T02:35:37.606Z,1296.00
2023-05-12T02:36:37.638Z,1301.00
2023-05-12T02:37:36.940Z,1304.00
2023-05-12T02:38:36.982Z,1302.00
2023-05-12T02:39:36.998Z,1292.00
2023-05-12T02:40:37.047Z,1303.00
2023-05-12T02:41:37.079Z,1283.00
2023-05-12T02:42:37.221Z,1255.00
2023-05-12T02:43:38.167Z,1240.00
2023-05-12T02:44:37.203Z,1236.00
2023-05-12T02:45:37.253Z,1199.00
2023-05-12T02:46:37.237Z,1179.00
2023-05-12T02:47:37.286Z,1148.00
2023-05-12T02:48:37.227Z,1115.00
2023-05-12T02:49:37.240Z,1074.00
2023-05-12T02:50:38.126Z,1077.00
2023-05-12T02:51:37.620Z,1031.00
2023-05-12T02:52:37.205Z,1015.00
2023-05-12T02:53:37.173Z,1001.00
2023-05-12T02:54:38.159Z,982.00
2023-05-12T02:55:37.215Z,966.00
2023-05-12T02:56:37.633Z,955.00
2023-05-12T02:57:38.131Z,925.00
2023-05-12T02:58:37.228Z,905.00
2023-05-12T02:59:37.342Z,898.00
2023-05-12T03:00:37.258Z,889.00
2023-05-12T03:01:37.231Z,866.00
2023-05-12T03:02:37.319Z,861.00
2023-05-12T03:03:38.406Z,844.00
2023-05-12T03:04:37.226Z,833.00
2023-05-12T03:05:37.237Z,834.00
2023-05-12T03:06:37.631Z,818.00
2023-05-12T03:07:37.237Z,814.00
2023-05-12T03:08:37.198Z,815.00
2023-05-12T03:09:37.331Z,801.00
2023-05-12T03:10:37.250Z,807.00
2023-05-12T03:11:37.233Z,763.00
2023-05-12T03:12:37.246Z,748.00
2023-05-12T03:13:37.239Z,738.00
2023-05-12T03:14:37.166Z,733.00
2023-05-12T03:15:37.222Z,717.00
2023-05-12T03:16:37.159Z,706.00
2023-05-12T03:17:37.317Z,691.00
2023-05-12T03:18:37.305Z,688.00
2023-05-12T03:19:37.256Z,707.00
2023-05-12T03:20:37.249Z,680.00
2023-05-12T03:21:37.322Z,678.00
2023-05-12T03:22:38.150Z,668.00
2023-05-12T03:23:37.257Z,655.00
2023-05-12T03:24:37.237Z,653.00
2023-05-12T03:25:38.154Z,650.00
2023-05-12T03:26:37.271Z,641.00
2023-05-12T03:27:38.158Z,635.00
2023-05-12T03:28:37.269Z,632.00
2023-05-12T03:29:37.271Z,631.00
2023-05-12T03:30:37.288Z,628.00
2023-05-12T03:31:37.696Z,628.00
2023-05-12T03:32:37.356Z,635.00
2023-05-12T03:33:37.309Z,634.00
2023-05-12T03:34:38.130Z,622.00
2023-05-12T03:35:37.328Z,623.00
2023-05-12T03:36:37.334Z,631.00
2023-05-12T03:37:37.311Z,620.00
2023-05-12T03:38:37.330Z,610.00
2023-05-12T03:39:38.138Z,604.00
2023-05-12T03:40:37.330Z,605.00
2023-05-12T03:41:37.326Z,610.00
2023-05-12T03:42:37.325Z,605.00
2023-05-12T03:43:37.346Z,605.00
2023-05-12T03:44:37.322Z,601.00
2023-05-12T03:45:37.328Z,601.00
2023-05-12T03:46:37.542Z,598.00
2023-05-12T03:47:37.588Z,592.00
2023-05-12T03:48:37.338Z,584.00
2023-05-12T03:49:37.317Z,584.00
2023-05-12T03:50:37.326Z,578.00
2023-05-12T03:51:37.409Z,580.00
2023-05-12T03:52:38.137Z,571.00
2023-05-12T03:53:37.458Z,567.00
2023-05-12T03:54:38.193Z,563.00
2023-05-12T03:55:37.339Z,572.00
2023-05-12T03:56:37.311Z,570.00
2023-05-12T03:57:37.311Z,570.00
2023-05-12T03:58:37.349Z,564.00
2023-05-12T03:59:37.349Z,566.00
2023-05-12T04:00:37.316Z,565.00
2023-05-12T04:01:37.742Z,556.00
2023-05-12T04:02:38.196Z,562.00
2023-05-12T04:03:37.453Z,564.00
2023-05-12T04:04:37.310Z,562.00
2023-05-12T04:05:37.331Z,564.00
2023-05-12T04:06:37.677Z,562.00
2023-05-12T04:07:37.340Z,559.00
2023-05-12T04:08:38.956Z,561.00
2023-05-12T04:09:37.416Z,566.00
2023-05-12T04:10:37.319Z,566.00
2023-05-12T04:11:37.375Z,572.00
2023-05-12T04:12:37.318Z,567.00
2023-05-12T04:13:38.145Z,567.00
2023-05-12T04:14:42.784Z,564.00
2023-05-12T04:15:38.296Z,564.00
2023-05-12T04:16:37.358Z,564.00
2023-05-12T04:17:37.348Z,556.00
2023-05-12T04:18:38.219Z,556.00
2023-05-12T04:19:37.368Z,552.00
2023-05-12T04:20:37.408Z,561.00
2023-05-12T04:21:37.671Z,559.00
2023-05-12T04:22:38.153Z,562.00
2023-05-12T04:23:37.362Z,554.00
2023-05-12T04:24:37.317Z,561.00
2023-05-12T04:25:37.414Z,562.00
2023-05-12T04:26:37.362Z,554.00
2023-05-12T04:27:38.172Z,558.00
2023-05-12T04:28:38.152Z,558.00
2023-05-12T04:29:37.326Z,559.00
2023-05-12T04:30:37.454Z,558.00
2023-05-12T04:31:37.428Z,552.00
2023-05-12T04:32:37.317Z,559.00
2023-05-12T04:33:37.385Z,560.00
2023-05-12T04:34:37.337Z,550.00
2023-05-12T04:35:37.357Z,562.00
2023-05-12T04:36:37.352Z,563.00
2023-05-12T04:37:37.687Z,552.00
2023-05-12T04:38:37.415Z,554.00
2023-05-12T04:39:37.405Z,555.00
2023-05-12T04:40:37.318Z,552.00
2023-05-12T04:41:37.529Z,555.00
2023-05-12T04:42:37.678Z,564.00
2023-05-12T04:44:37.344Z,559.00
2023-05-12T04:45:37.396Z,561.00
2023-05-12T04:46:37.471Z,567.00
2023-05-12T04:47:37.435Z,575.00
2023-05-12T04:48:37.452Z,585.00
2023-05-12T04:49:37.372Z,598.00
2023-05-12T04:50:37.427Z,590.00
2023-05-12T04:51:37.247Z,604.00
2023-05-12T04:52:37.357Z,595.00
2023-05-12T04:53:37.266Z,606.00
2023-05-12T04:54:37.410Z,597.00
2023-05-12T04:55:37.421Z,595.00
2023-05-12T04:56:37.424Z,604.00
2023-05-12T04:57:37.331Z,601.00
2023-05-12T04:58:37.366Z,599.00
2023-05-12T04:59:38.137Z,600.00
2023-05-12T05:00:37.422Z,605.00
2023-05-12T05:01:37.448Z,605.00
2023-05-12T05:02:37.454Z,601.00
2023-05-12T05:03:37.644Z,598.00
2023-05-12T05:04:38.179Z,597.00
2023-05-12T05:05:37.465Z,594.00
2023-05-12T05:06:37.450Z,597.00
2023-05-12T05:07:37.392Z,592.00
2023-05-12T05:08:37.413Z,595.00
2023-05-12T05:09:37.381Z,588.00
2023-05-12T05:10:37.385Z,593.00
2023-05-12T05:11:38.220Z,585.00
2023-05-12T05:12:37.443Z,588.00
2023-05-12T05:13:37.405Z,586.00
2023-05-12T05:14:37.418Z,587.00
2023-05-12T05:15:37.445Z,587.00
2023-05-12T05:16:37.425Z,587.00
2023-05-12T05:17:37.498Z,588.00
2023-05-12T05:18:37.417Z,587.00
2023-05-12T05:19:53.097Z,587.00
2023-05-12T05:21:37.453Z,588.00
2023-05-12T05:22:37.698Z,587.00
2023-05-12T05:23:37.428Z,588.00
2023-05-12T05:24:37.412Z,590.00
2023-05-12T05:25:37.371Z,585.00
2023-05-12T05:26:37.457Z,583.00
2023-05-12T05:27:37.418Z,590.00
2023-05-12T05:28:37.409Z,584.00
2023-05-12T05:29:37.412Z,577.00
2023-05-12T05:30:37.488Z,582.00
2023-05-12T05:31:37.495Z,581.00
2023-05-12T05:32:37.860Z,581.00
2023-05-12T05:33:37.424Z,578.00
2023-05-12T05:34:37.513Z,577.00
2023-05-12T05:35:40.184Z,584.00
2023-05-12T05:36:37.501Z,582.00
2023-05-12T05:37:37.476Z,585.00
2023-05-12T05:38:38.232Z,585.00
2023-05-12T05:39:37.382Z,589.00
2023-05-12T05:40:51.557Z,587.00
2023-05-12T05:41:38.426Z,585.00
2023-05-12T05:42:38.306Z,587.00
2023-05-12T05:43:38.409Z,588.00
2023-05-12T05:44:38.462Z,588.00
2023-05-12T05:45:37.506Z,593.00
2023-05-12T05:46:38.258Z,593.00
2023-05-12T05:47:37.672Z,596.00
2023-05-12T05:48:37.470Z,591.00
2023-05-12T05:49:39.217Z,586.00
2023-05-12T05:50:38.195Z,583.00
2023-05-12T05:51:37.571Z,558.00
2023-05-12T05:52:37.703Z,529.00
2023-05-12T05:53:37.519Z,512.00
2023-05-12T05:54:37.526Z,499.00
2023-05-12T05:55:37.623Z,501.00
2023-05-12T05:56:38.227Z,502.00
2023-05-12T05:57:37.519Z,504.00
2023-05-12T05:58:37.517Z,506.00
2023-05-12T05:59:37.562Z,508.00
2023-05-12T06:00:37.588Z,509.00
2023-05-12T06:01:37.618Z,508.00
2023-05-12T06:02:37.766Z,507.00
2023-05-12T06:03:37.737Z,499.00
2023-05-12T06:04:38.200Z,500.00
2023-05-12T06:05:37.708Z,491.00
2023-05-12T06:06:37.682Z,488.00
2023-05-12T06:07:37.715Z,506.00
2023-05-12T06:08:37.735Z,506.00
2023-05-12T06:09:37.747Z,503.00
2023-05-12T06:10:37.825Z,501.00
2023-05-12T06:11:37.823Z,506.00
2023-05-12T06:12:37.857Z,498.00
2023-05-12T06:13:37.871Z,494.00
2023-05-12T06:14:37.897Z,490.00
2023-05-12T06:15:37.912Z,487.00
2023-05-12T06:16:37.966Z,490.00
2023-05-12T06:17:38.409Z,491.00
2023-05-12T06:18:38.306Z,497.00
2023-05-12T06:19:38.036Z,509.00
2023-05-12T06:20:38.037Z,525.00
2023-05-12T06:21:38.081Z,551.00
2023-05-12T06:22:38.100Z,565.00
2023-05-12T06:23:38.120Z,565.00
2023-05-12T06:24:38.200Z,565.00
2023-05-12T06:25:38.153Z,566.00
2023-05-12T06:26:38.223Z,569.00
2023-05-12T06:27:38.272Z,562.00
2023-05-12T06:28:38.184Z,570.00
2023-05-12T06:29:38.225Z,569.00
2023-05-12T06:30:38.247Z,572.00
2023-05-12T06:31:38.286Z,572.00
2023-05-12T06:32:38.278Z,573.00
2023-05-12T06:33:39.228Z,573.00
2023-05-12T06:34:38.280Z,575.00
2023-05-12T06:35:38.279Z,543.00
2023-05-12T06:36:38.270Z,497.00
2023-05-12T06:37:38.327Z,500.00
2023-05-12T06:38:38.314Z,511.00
2023-05-12T06:39:38.335Z,524.00
2023-05-12T06:40:38.347Z,554.00
2023-05-12T06:41:38.382Z,558.00
2023-05-12T06:42:38.462Z,571.00
2023-05-12T06:43:38.666Z,574.00
2023-05-12T06:44:41.107Z,586.00
2023-05-12T06:45:38.619Z,597.00
2023-05-12T06:46:38.752Z,597.00
2023-05-12T06:47:38.684Z,602.00
2023-05-12T06:48:38.809Z,622.00
2023-05-12T06:49:38.781Z,626.00
2023-05-12T06:50:38.692Z,639.00
2023-05-12T06:51:38.817Z,640.00
2023-05-12T06:52:38.677Z,641.00
2023-05-12T06:53:38.857Z,643.00
2023-05-12T06:54:38.678Z,648.00
2023-05-12T06:55:38.686Z,650.00
2023-05-12T06:56:38.718Z,663.00
2023-05-12T06:57:38.780Z,641.00
2023-05-12T06:58:38.727Z,645.00
2023-05-12T06:59:38.729Z,654.00
2023-05-12T07:00:38.813Z,663.00
2023-05-12T07:01:38.831Z,710.00
2023-05-12T07:02:38.761Z,714.00
2023-05-12T07:03:38.823Z,712.00
2023-05-12T07:04:38.761Z,743.00
2023-05-12T07:05:38.865Z,723.00
2023-05-12T07:06:38.792Z,712.00
2023-05-12T07:07:38.745Z,708.00
2023-05-12T07:08:38.732Z,712.00
2023-05-12T07:09:38.741Z,704.00
2023-05-12T07:10:38.754Z,694.00
2023-05-12T07:11:38.777Z,697.00
2023-05-12T07:12:38.778Z,687.00
2023-05-12T07:13:38.817Z,681.00
2023-05-12T07:14:38.779Z,662.00
2023-05-12T07:15:38.859Z,651.00
2023-05-12T07:16:38.808Z,643.00
2023-05-12T07:17:40.789Z,631.00
2023-05-12T07:18:39.774Z,615.00
2023-05-12T07:19:38.917Z,610.00
2023-05-12T07:20:38.821Z,612.00
2023-05-12T07:21:38.860Z,608.00
2023-05-12T07:22:39.212Z,606.00
2023-05-12T07:23:38.926Z,607.00
2023-05-12T07:24:38.897Z,599.00
2023-05-12T07:25:39.031Z,599.00
2023-05-12T07:26:38.948Z,595.00
2023-05-12T07:27:39.318Z,600.00
2023-05-12T07:28:38.990Z,594.00
2023-05-12T07:29:38.971Z,589.00
2023-05-12T07:30:39.013Z,584.00
2023-05-12T07:31:39.806Z,577.00
2023-05-12T07:32:39.099Z,577.00
2023-05-12T07:33:39.068Z,570.00
2023-05-12T07:34:39.091Z,583.00
2023-05-12T07:35:39.125Z,566.00
2023-05-12T07:36:39.157Z,575.00
2023-05-12T07:37:39.191Z,566.00
2023-05-12T07:38:39.190Z,563.00
2023-05-12T07:39:39.195Z,556.00
2023-05-12T07:40:39.189Z,554.00
2023-05-12T07:41:39.185Z,555.00
2023-05-12T07:42:39.215Z,551.00
2023-05-12T07:43:39.206Z,559.00
2023-05-12T07:44:39.228Z,559.00
2023-05-12T07:45:39.232Z,562.00
2023-05-12T07:46:39.315Z,557.00
2023-05-12T07:47:39.584Z,544.00
2023-05-12T07:48:39.273Z,534.00
2023-05-12T07:49:39.271Z,527.00
2023-05-12T07:50:39.585Z,531.00
2023-05-12T07:51:39.361Z,536.00
2023-05-12T07:52:39.322Z,552.00
2023-05-12T07:53:39.339Z,580.00
2023-05-12T07:54:39.315Z,604.00
2023-05-12T07:55:39.335Z,628.00
2023-05-12T07:56:39.323Z,646.00
2023-05-12T07:57:39.315Z,672.00
2023-05-12T07:58:39.389Z,722.00
2023-05-12T07:59:39.405Z,757.00
2023-05-12T08:00:39.430Z,783.00
2023-05-12T08:01:39.568Z,822.00
2023-05-12T08:02:39.625Z,866.00
2023-05-12T08:03:39.702Z,912.00
2023-05-12T08:04:39.667Z,938.00
2023-05-12T08:05:39.674Z,979.00
2023-05-12T08:06:39.736Z,1017.00
2023-05-12T08:07:41.210Z,1039.00
2023-05-12T08:08:39.819Z,1061.00
2023-05-12T08:09:40.325Z,1075.00
2023-05-12T08:10:42.412Z,1092.00
2023-05-12T08:11:39.936Z,1093.00
2023-05-12T08:12:40.036Z,1113.00
2023-05-12T08:13:39.925Z,1122.00
2023-05-12T08:14:39.933Z,1146.00
2023-05-12T08:15:40.119Z,1173.00
2023-05-12T08:16:39.923Z,1165.00
2023-05-12T08:17:39.915Z,1168.00
2023-05-12T08:18:39.912Z,1177.00
2023-05-12T08:19:39.871Z,1196.00
2023-05-12T08:20:39.901Z,1237.00
2023-05-12T08:21:39.922Z,1329.00
2023-05-12T08:22:39.939Z,1369.00
2023-05-12T08:23:39.857Z,1382.00
2023-05-12T08:24:39.867Z,1393.00
2023-05-12T08:25:39.861Z,1382.00
2023-05-12T08:26:39.796Z,1391.00
2023-05-12T08:27:39.852Z,1375.00
2023-05-12T08:28:39.792Z,1375.00
2023-05-12T08:29:39.810Z,1353.00
2023-05-12T08:30:39.797Z,1356.00
2023-05-12T08:31:39.812Z,1338.00
2023-05-12T08:32:39.778Z,1331.00
2023-05-12T08:33:39.789Z,1292.00
2023-05-12T08:34:39.743Z,1228.00
2023-05-12T08:35:39.733Z,1171.00
2023-05-12T08:36:39.822Z,1139.00
2023-05-12T08:37:39.708Z,1115.00
2023-05-12T08:38:39.714Z,1095.00
2023-05-12T08:39:39.745Z,1092.00
2023-05-12T08:40:41.833Z,1053.00
2023-05-12T08:41:39.884Z,1025.00
2023-05-12T08:42:39.912Z,942.00
2023-05-12T08:43:39.930Z,932.00
2023-05-12T08:44:39.997Z,921.00
2023-05-12T08:45:40.065Z,944.00
2023-05-12T08:46:40.097Z,985.00
2023-05-12T08:47:40.117Z,992.00
2023-05-12T08:48:40.268Z,1018.00
2023-05-12T08:49:40.233Z,1030.00
2023-05-12T08:50:40.302Z,1048.00
2023-05-12T08:51:40.448Z,1053.00
2023-05-12T08:52:41.316Z,1071.00
2023-05-12T08:53:42.421Z,1080.00
2023-05-12T08:54:52.318Z,1095.00
2023-05-12T08:55:42.595Z,1096.00
2023-05-12T08:57:40.530Z,1097.00
2023-05-12T08:58:42.079Z,1102.00
2023-05-12T08:59:40.619Z,1097.00
2023-05-12T09:00:40.550Z,1107.00
2023-05-12T09:01:41.290Z,1127.00
2023-05-12T09:02:52.148Z,1154.00
2023-05-12T09:03:43.405Z,1099.00
2023-05-12T09:04:40.429Z,1115.00
2023-05-12T09:05:40.370Z,1137.00
2023-05-12T09:06:40.542Z,1181.00
2023-05-12T09:07:40.369Z,1241.00
2023-05-12T09:08:40.383Z,1259.00
2023-05-12T09:09:40.411Z,1260.00
2023-05-12T09:10:40.323Z,1269.00
2023-05-12T09:11:41.266Z,1299.00
2023-05-12T09:12:40.307Z,1311.00
2023-05-12T09:13:40.686Z,1314.00
2023-05-12T09:14:40.296Z,1319.00
2023-05-12T09:15:40.329Z,1332.00
2023-05-12T09:16:41.892Z,1328.00
2023-05-12T09:17:41.309Z,1339.00
2023-05-12T09:18:40.297Z,1353.00
2023-05-12T09:19:40.275Z,1350.00
2023-05-12T09:20:40.805Z,1367.00
2023-05-12T09:21:40.224Z,1360.00
2023-05-12T09:22:40.186Z,1372.00
2023-05-12T09:23:40.262Z,1387.00
2023-05-12T09:24:40.131Z,1392.00
2023-05-12T09:25:40.240Z,1397.00
2023-05-12T09:26:40.140Z,1397.00
2023-05-12T09:27:40.168Z,1383.00
2023-05-12T09:28:40.105Z,1403.00
2023-05-12T09:29:48.222Z,1383.00
2023-05-12T09:30:40.083Z,1385.00
2023-05-12T09:31:40.205Z,1388.00
2023-05-12T09:32:40.103Z,1402.00
2023-05-12T09:33:45.470Z,1406.00
2023-05-12T09:34:40.097Z,1386.00
2023-05-12T09:35:40.128Z,1394.00
2023-05-12T09:36:40.132Z,1405.00
2023-05-12T09:37:40.123Z,1386.00
2023-05-12T09:38:40.125Z,1397.00
2023-05-12T09:39:40.111Z,1412.00
2023-05-12T09:40:40.063Z,1423.00
2023-05-12T09:41:40.064Z,1467.00
2023-05-12T09:42:40.022Z,1465.00
2023-05-12T09:43:40.089Z,1485.00
2023-05-12T09:44:40.065Z,1479.00
2023-05-12T09:45:40.024Z,1467.00
2023-05-12T09:46:40.007Z,1433.00
2023-05-12T09:47:39.989Z,1402.00
2023-05-12T09:48:40.366Z,1397.00
2023-05-12T09:49:39.999Z,1353.00
2023-05-12T09:50:47.395Z,1355.00
2023-05-12T09:51:41.051Z,1356.00
2023-05-12T09:52:40.007Z,1354.00
2023-05-12T09:53:39.942Z,1346.00
2023-05-12T09:54:39.902Z,1327.00
2023-05-12T09:55:39.928Z,1329.00
2023-05-12T09:56:39.893Z,1285.00
2023-05-12T09:57:39.851Z,1288.00
2023-05-12T09:58:39.881Z,1239.00
2023-05-12T09:59:41.635Z,1240.00
2023-05-12T10:01:05.966Z,1242.00
2023-05-12T10:01:40.863Z,1241.00
2023-05-12T10:02:39.813Z,1245.00
2023-05-12T10:03:39.745Z,1261.00
2023-05-12T10:04:39.860Z,1270.00
2023-05-12T10:05:39.753Z,1292.00
2023-05-12T10:06:39.700Z,1292.00
2023-05-12T10:07:39.651Z,1283.00
2023-05-12T10:08:39.652Z,1289.00
2023-05-12T10:09:39.751Z,1253.00
2023-05-12T10:10:39.711Z,1253.00
2023-05-12T10:11:39.569Z,1250.00
2023-05-12T10:12:39.594Z,1256.00
2023-05-12T10:13:39.560Z,1286.00
2023-05-12T10:14:39.523Z,1340.00
2023-05-12T10:15:39.477Z,1340.00
2023-05-12T10:16:39.497Z,1357.00
2023-05-12T10:17:39.668Z,1363.00
2023-05-12T10:18:39.561Z,1345.00
2023-05-12T10:19:39.399Z,1276.00
2023-05-12T10:20:39.364Z,1285.00
2023-05-12T10:21:39.386Z,1272.00
2023-05-12T10:22:39.334Z,1285.00
2023-05-12T10:23:39.329Z,1271.00
2023-05-12T10:24:39.445Z,1279.00
2023-05-12T10:25:39.811Z,1219.00
2023-05-12T10:26:39.286Z,1183.00
2023-05-12T10:27:39.268Z,1187.00
2023-05-12T10:28:39.240Z,1202.00
2023-05-12T10:29:39.171Z,1211.00
2023-05-12T10:30:39.203Z,1183.00
2023-05-12T10:31:39.272Z,1159.00
2023-05-12T10:32:39.187Z,1132.00
2023-05-12T10:33:39.210Z,1107.00
2023-05-12T10:34:39.123Z,1112.00
2023-05-12T10:35:39.040Z,1123.00
2023-05-12T10:36:39.818Z,1136.00
2023-05-12T10:37:39.033Z,1113.00
2023-05-12T10:38:38.995Z,1088.00
2023-05-12T10:39:38.946Z,1125.00
2023-05-12T10:40:38.963Z,1098.00
2023-05-12T10:41:38.898Z,1117.00
2023-05-12T10:42:38.901Z,1126.00
2023-05-12T10:43:38.854Z,1152.00
2023-05-12T10:44:38.871Z,1170.00
2023-05-12T10:45:38.994Z,1138.00
2023-05-12T10:46:38.867Z,1193.00
2023-05-12T10:47:38.860Z,1174.00
2023-05-12T10:48:38.822Z,1202.00
2023-05-12T10:49:38.877Z,1210.00
2023-05-12T10:50:38.825Z,1228.00
2023-05-12T10:51:38.906Z,1229.00
2023-05-12T10:52:39.626Z,1191.00
2023-05-12T10:53:49.182Z,1187.00
2023-05-12T10:54:39.801Z,1189.00
2023-05-12T10:55:38.922Z,1197.00
2023-05-12T10:56:38.948Z,1216.00
2023-05-12T10:57:39.071Z,1270.00
2023-05-12T10:58:39.678Z,1349.00
2023-05-12T10:59:38.931Z,1373.00
2023-05-12T11:00:38.997Z,1413.00
2023-05-12T11:01:39.486Z,1398.00
2023-05-12T11:02:39.864Z,1399.00
2023-05-12T11:03:39.633Z,1456.00
2023-05-12T11:04:38.661Z,1485.00
2023-05-12T11:05:38.677Z,1516.00
2023-05-12T11:06:39.753Z,1557.00
2023-05-12T11:07:39.783Z,1597.00
2023-05-12T11:08:39.988Z,1649.00
2023-05-12T11:09:43.429Z,1672.00
2023-05-12T11:10:39.769Z,1673.00
2023-05-12T11:11:54.256Z,1685.00
2023-05-12T11:12:42.104Z,1677.00
2023-05-12T11:13:38.290Z,1679.00
2023-05-12T11:14:38.310Z,1707.00
2023-05-12T11:15:38.246Z,1757.00
2023-05-12T11:16:38.324Z,1830.00
2023-05-12T11:17:38.284Z,1922.00
2023-05-12T11:18:38.216Z,1947.00
2023-05-12T11:19:38.147Z,1972.00
2023-05-12T11:20:38.087Z,1984.00
2023-05-12T11:21:38.077Z,1981.00
2023-05-12T11:22:38.049Z,2001.00
2023-05-12T11:23:38.037Z,2016.00
2023-05-12T11:24:38.843Z,2025.00
2023-05-12T11:25:38.025Z,2044.00
2023-05-12T11:26:37.956Z,2044.00
2023-05-12T11:27:38.058Z,2037.00
2023-05-12T11:28:38.869Z,2040.00
2023-05-12T11:29:38.950Z,2044.00
2023-05-12T11:30:37.870Z,2031.00
2023-05-12T11:31:37.839Z,2011.00
2023-05-12T11:32:37.996Z,2020.00
2023-05-12T11:33:37.752Z,1998.00
2023-05-12T11:34:37.731Z,1992.00
2023-05-12T11:35:37.703Z,1987.00
2023-05-12T11:36:37.692Z,1976.00
2023-05-12T11:37:37.731Z,1975.00
2023-05-12T11:38:37.660Z,1943.00
2023-05-12T11:39:37.636Z,1944.00
2023-05-12T11:40:37.728Z,1945.00
2023-05-12T11:41:38.321Z,1942.00
2023-05-12T11:42:37.638Z,1927.00
2023-05-12T11:43:37.516Z,1938.00
2023-05-12T11:44:37.545Z,1933.00
2023-05-12T11:45:37.471Z,1932.00
2023-05-12T11:46:37.636Z,1925.00
2023-05-12T11:47:37.468Z,1929.00
2023-05-12T11:48:37.381Z,1934.00
2023-05-12T11:49:37.358Z,1960.00
2023-05-12T11:50:37.358Z,1936.00
2023-05-12T11:51:37.330Z,1929.00
2023-05-12T11:52:37.309Z,1934.00
2023-05-12T11:53:37.303Z,1942.00
2023-05-12T11:54:37.253Z,1948.00
2023-05-12T11:55:37.243Z,1949.00
2023-05-12T11:56:37.204Z,1944.00
2023-05-12T11:57:37.308Z,1950.00
2023-05-12T11:58:37.153Z,1955.00
2023-05-12T11:59:37.176Z,1957.00
2023-05-12T12:00:37.130Z,1949.00
2023-05-12T12:01:37.111Z,1944.00
2023-05-12T12:02:37.218Z,1945.00
2023-05-12T12:03:37.278Z,1950.00
2023-05-12T12:04:37.110Z,1939.00
2023-05-12T12:05:37.081Z,1953.00
2023-05-12T12:06:37.114Z,1951.00
2023-05-12T12:07:37.327Z,1976.00
2023-05-12T12:08:37.220Z,1983.00
2023-05-12T12:09:37.221Z,1987.00
2023-05-12T12:10:37.221Z,2013.00
2023-05-12T12:11:37.289Z,2009.00
2023-05-12T12:12:37.303Z,2038.00
2023-05-12T12:13:37.296Z,2054.00
2023-05-12T12:14:38.411Z,2064.00
2023-05-12T12:15:37.394Z,2077.00
2023-05-12T12:16:37.420Z,2088.00
2023-05-12T12:17:37.356Z,2098.00
2023-05-12T12:18:37.426Z,2107.00